sensor_id;sensor_type;location;lat;lon;timestamp;temperature;humidity
8664;DHT22;4369;47.842;13.096;2023-06-26T00:01:53;16.40;99.90
8664;DHT22;4369;47.842;13.096;2023-06-26T00:04:19;16.30;99.90
8664;DHT22;4369;47.842;13.096;2023-06-26T00:06:46;16.30;99.90
8664;DHT22;4369;47.842;13.096;2023-06-26T00:09:13;16.40;1.00
8664;DHT22;4369;47.842;13.096;2023-06-26T00:11:41;16.40;1.00
8664;DHT22;4369;47.842;13.096;2023-06-26T00:14:08;16.30;1.00
8664;DHT22;4369;47.842;13.096;2023-06-26T00:16:36;16.30;1.00
8664;DHT22;4369;47.842;13.096;2023-06-26T00:19:03;16.40;1.00
8664;DHT22;4369;47.842;13.096;2023-06-26T00:21:29;16.30;99.90
8664;DHT22;4369;47.842;13.096;2023-06-26T00:23:56;16.30;99.90
8664;DHT22;4369;47.842;13.096;2023-06-26T00:26:23;16.30;99.90
8664;DHT22;4369;47.842;13.096;2023-06-26T00:28:52;16.30;99.90
8664;DHT22;4369;47.842;13.096;2023-06-26T00:31:19;16.30;99.90
8664;DHT22;4369;47.842;13.096;2023-06-26T00:33:45;16.20;99.90
8664;DHT22;4369;47.842;13.096;2023-06-26T00:36:12;16.20;99.90
8664;DHT22;4369;47.842;13.096;2023-06-26T00:38:40;16.20;99.90
8664;DHT22;4369;47.842;13.096;2023-06-26T00:41:07;16.20;1.00
8664;DHT22;4369;47.842;13.096;2023-06-26T00:43:38;16.20;1.00
8664;DHT22;4369;47.842;13.096;2023-06-26T00:46:09;16.30;1.00
8664;DHT22;4369;47.842;13.096;2023-06-26T00:48:37;16.30;1.00
8664;DHT22;4369;47.842;13.096;2023-06-26T00:51:04;16.20;1.00
8664;DHT22;4369;47.842;13.096;2023-06-26T00:53:31;16.10;68.90
8664;DHT22;4369;47.842;13.096;2023-06-26T00:55:59;16.10;99.90
8664;DHT22;4369;47.842;13.096;2023-06-26T00:58:26;16.00;99.90
8664;DHT22;4369;47.842;13.096;2023-06-26T01:00:53;15.90;99.90
8664;DHT22;4369;47.842;13.096;2023-06-26T01:03:22;15.90;99.90
8664;DHT22;4369;47.842;13.096;2023-06-26T01:05:51;15.80;99.90
8664;DHT22;4369;47.842;13.096;2023-06-26T01:08:19;15.80;1.00
8664;DHT22;4369;47.842;13.096;2023-06-26T01:10:47;15.80;1.00
8664;DHT22;4369;47.842;13.096;2023-06-26T01:13:15;15.80;1.00
8664;DHT22;4369;47.842;13.096;2023-06-26T01:15:42;15.90;1.00
8664;DHT22;4369;47.842;13.096;2023-06-26T01:18:09;15.90;1.00
8664;DHT22;4369;47.842;13.096;2023-06-26T01:20:39;15.90;1.00
8664;DHT22;4369;47.842;13.096;2023-06-26T01:23:14;15.80;99.90
8664;DHT22;4369;47.842;13.096;2023-06-26T01:28:29;15.70;99.90
8664;DHT22;4369;47.842;13.096;2023-06-26T01:30:56;15.70;99.90
8664;DHT22;4369;47.842;13.096;2023-06-26T01:33:24;15.70;1.00
8664;DHT22;4369;47.842;13.096;2023-06-26T01:35:51;15.70;1.00
8664;DHT22;4369;47.842;13.096;2023-06-26T01:38:20;15.70;99.90
8664;DHT22;4369;47.842;13.096;2023-06-26T01:40:49;15.70;99.90
8664;DHT22;4369;47.842;13.096;2023-06-26T01:43:29;15.60;99.90
8664;DHT22;4369;47.842;13.096;2023-06-26T01:46:02;15.60;99.90
8664;DHT22;4369;47.842;13.096;2023-06-26T01:48:36;15.50;68.70
8664;DHT22;4369;47.842;13.096;2023-06-26T01:51:06;15.50;99.90
8664;DHT22;4369;47.842;13.096;2023-06-26T01:53:38;15.50;99.90
8664;DHT22;4369;47.842;13.096;2023-06-26T01:56:13;15.50;1.00
8664;DHT22;4369;47.842;13.096;2023-06-26T01:58:42;15.40;1.00
8664;DHT22;4369;47.842;13.096;2023-06-26T02:01:11;15.40;99.90
8664;DHT22;4369;47.842;13.096;2023-06-26T02:03:38;15.30;1.00
8664;DHT22;4369;47.842;13.096;2023-06-26T02:06:05;15.30;99.90
8664;DHT22;4369;47.842;13.096;2023-06-26T02:08:32;15.20;1.00
8664;DHT22;4369;47.842;13.096;2023-06-26T02:10:59;15.20;99.90
8664;DHT22;4369;47.842;13.096;2023-06-26T02:13:26;15.10;4.00
8664;DHT22;4369;47.842;13.096;2023-06-26T02:15:53;15.10;99.90
8664;DHT22;4369;47.842;13.096;2023-06-26T02:18:21;15.10;99.90
8664;DHT22;4369;47.842;13.096;2023-06-26T02:20:48;15.20;99.90
8664;DHT22;4369;47.842;13.096;2023-06-26T02:23:15;15.20;1.00
8664;DHT22;4369;47.842;13.096;2023-06-26T02:25:42;15.20;99.90
8664;DHT22;4369;47.842;13.096;2023-06-26T02:28:09;15.20;1.00
8664;DHT22;4369;47.842;13.096;2023-06-26T02:30:36;15.20;1.00
8664;DHT22;4369;47.842;13.096;2023-06-26T02:33:03;15.20;99.90
8664;DHT22;4369;47.842;13.096;2023-06-26T02:35:31;15.20;1.00
8664;DHT22;4369;47.842;13.096;2023-06-26T02:40:43;15.20;1.00
8664;DHT22;4369;47.842;13.096;2023-06-26T02:43:10;15.10;99.90
8664;DHT22;4369;47.842;13.096;2023-06-26T02:45:37;15.10;99.90
8664;DHT22;4369;47.842;13.096;2023-06-26T02:48:04;15.00;1.00
8664;DHT22;4369;47.842;13.096;2023-06-26T02:50:33;15.00;1.00
8664;DHT22;4369;47.842;13.096;2023-06-26T02:53:00;15.00;99.90
8664;DHT22;4369;47.842;13.096;2023-06-26T02:55:28;15.00;1.00
8664;DHT22;4369;47.842;13.096;2023-06-26T02:57:54;15.00;23.00
8664;DHT22;4369;47.842;13.096;2023-06-26T03:00:21;15.00;99.90
8664;DHT22;4369;47.842;13.096;2023-06-26T03:02:48;15.00;1.00
8664;DHT22;4369;47.842;13.096;2023-06-26T03:05:15;15.00;99.90
8664;DHT22;4369;47.842;13.096;2023-06-26T03:07:43;14.90;99.90
8664;DHT22;4369;47.842;13.096;2023-06-26T03:10:10;14.90;1.00
8664;DHT22;4369;47.842;13.096;2023-06-26T03:12:37;14.90;99.90
8664;DHT22;4369;47.842;13.096;2023-06-26T03:15:04;15.00;42.60
8664;DHT22;4369;47.842;13.096;2023-06-26T03:17:33;15.00;29.20
8664;DHT22;4369;47.842;13.096;2023-06-26T03:20:02;15.00;99.90
8664;DHT22;4369;47.842;13.096;2023-06-26T03:22:32;15.00;1.00
8664;DHT22;4369;47.842;13.096;2023-06-26T03:25:01;15.00;99.90
8664;DHT22;4369;47.842;13.096;2023-06-26T03:27:28;14.90;1.00
8664;DHT22;4369;47.842;13.096;2023-06-26T03:29:55;14.90;1.00
8664;DHT22;4369;47.842;13.096;2023-06-26T03:32:23;15.00;1.00
8664;DHT22;4369;47.842;13.096;2023-06-26T03:34:50;15.00;99.90
8664;DHT22;4369;47.842;13.096;2023-06-26T03:37:18;14.90;1.00
8664;DHT22;4369;47.842;13.096;2023-06-26T03:39:45;15.00;1.00
8664;DHT22;4369;47.842;13.096;2023-06-26T03:42:13;14.90;99.90
8664;DHT22;4369;47.842;13.096;2023-06-26T03:44:40;14.90;1.00
8664;DHT22;4369;47.842;13.096;2023-06-26T03:47:07;14.90;99.90
8664;DHT22;4369;47.842;13.096;2023-06-26T03:49:34;14.90;99.90
8664;DHT22;4369;47.842;13.096;2023-06-26T03:52:01;14.90;99.90
8664;DHT22;4369;47.842;13.096;2023-06-26T03:54:27;14.90;99.90
8664;DHT22;4369;47.842;13.096;2023-06-26T03:56:54;15.00;99.90
8664;DHT22;4369;47.842;13.096;2023-06-26T03:59:22;15.00;1.00
8664;DHT22;4369;47.842;13.096;2023-06-26T04:01:49;15.00;1.00
8664;DHT22;4369;47.842;13.096;2023-06-26T04:04:16;15.00;99.90
8664;DHT22;4369;47.842;13.096;2023-06-26T04:06:43;15.10;99.90
8664;DHT22;4369;47.842;13.096;2023-06-26T04:09:10;15.20;99.90
8664;DHT22;4369;47.842;13.096;2023-06-26T04:11:37;15.20;99.90
8664;DHT22;4369;47.842;13.096;2023-06-26T04:14:04;15.20;99.90
8664;DHT22;4369;47.842;13.096;2023-06-26T04:16:32;15.30;99.90
8664;DHT22;4369;47.842;13.096;2023-06-26T04:18:59;15.30;99.90
8664;DHT22;4369;47.842;13.096;2023-06-26T04:21:27;15.30;99.90
8664;DHT22;4369;47.842;13.096;2023-06-26T04:23:54;15.40;1.00
8664;DHT22;4369;47.842;13.096;2023-06-26T04:26:21;15.50;99.90
8664;DHT22;4369;47.842;13.096;2023-06-26T04:28:48;15.60;1.00
8664;DHT22;4369;47.842;13.096;2023-06-26T04:31:15;15.70;99.90
8664;DHT22;4369;47.842;13.096;2023-06-26T04:33:43;15.70;99.90
8664;DHT22;4369;47.842;13.096;2023-06-26T04:36:13;15.80;99.90
8664;DHT22;4369;47.842;13.096;2023-06-26T04:38:45;15.90;99.90
8664;DHT22;4369;47.842;13.096;2023-06-26T04:44:01;16.00;99.90
8664;DHT22;4369;47.842;13.096;2023-06-26T04:46:30;16.10;99.90
8664;DHT22;4369;47.842;13.096;2023-06-26T04:51:59;16.20;1.00
8664;DHT22;4369;47.842;13.096;2023-06-26T04:54:26;16.30;99.90
8664;DHT22;4369;47.842;13.096;2023-06-26T04:56:54;16.40;1.00
8664;DHT22;4369;47.842;13.096;2023-06-26T04:59:24;16.50;99.90
8664;DHT22;4369;47.842;13.096;2023-06-26T05:01:51;16.60;1.00
8664;DHT22;4369;47.842;13.096;2023-06-26T05:04:18;16.60;28.00
8664;DHT22;4369;47.842;13.096;2023-06-26T05:06:44;16.80;1.00
8664;DHT22;4369;47.842;13.096;2023-06-26T05:09:13;16.90;20.00
8664;DHT22;4369;47.842;13.096;2023-06-26T05:11:40;17.00;1.00
8664;DHT22;4369;47.842;13.096;2023-06-26T05:14:07;17.20;1.00
8664;DHT22;4369;47.842;13.096;2023-06-26T05:16:34;17.30;99.90
8664;DHT22;4369;47.842;13.096;2023-06-26T05:19:01;17.40;1.00
8664;DHT22;4369;47.842;13.096;2023-06-26T05:21:28;17.30;1.00
8664;DHT22;4369;47.842;13.096;2023-06-26T05:23:57;17.20;99.90
8664;DHT22;4369;47.842;13.096;2023-06-26T05:26:26;17.30;99.90
8664;DHT22;4369;47.842;13.096;2023-06-26T05:28:54;17.40;99.90
8664;DHT22;4369;47.842;13.096;2023-06-26T05:31:21;17.30;87.30
8664;DHT22;4369;47.842;13.096;2023-06-26T05:33:49;17.30;99.90
8664;DHT22;4369;47.842;13.096;2023-06-26T05:36:17;17.40;99.90
8664;DHT22;4369;47.842;13.096;2023-06-26T05:38:45;17.40;86.50
8664;DHT22;4369;47.842;13.096;2023-06-26T05:41:12;17.50;99.90
8664;DHT22;4369;47.842;13.096;2023-06-26T05:43:41;17.70;99.90
8664;DHT22;4369;47.842;13.096;2023-06-26T05:46:07;17.80;99.90
8664;DHT22;4369;47.842;13.096;2023-06-26T05:48:34;17.80;3.20
8664;DHT22;4369;47.842;13.096;2023-06-26T05:51:02;17.90;31.20
8664;DHT22;4369;47.842;13.096;2023-06-26T05:53:30;18.00;28.90
8664;DHT22;4369;47.842;13.096;2023-06-26T05:55:57;18.10;27.00
8664;DHT22;4369;47.842;13.096;2023-06-26T05:58:26;18.20;44.40
8664;DHT22;4369;47.842;13.096;2023-06-26T06:00:55;18.30;79.80
8664;DHT22;4369;47.842;13.096;2023-06-26T06:03:22;18.40;99.90
8664;DHT22;4369;47.842;13.096;2023-06-26T06:05:49;18.50;71.80
8664;DHT22;4369;47.842;13.096;2023-06-26T06:08:16;18.60;80.60
8664;DHT22;4369;47.842;13.096;2023-06-26T06:10:43;18.80;91.70
8664;DHT22;4369;47.842;13.096;2023-06-26T06:13:10;18.90;94.00
8664;DHT22;4369;47.842;13.096;2023-06-26T06:15:36;18.90;44.20
8664;DHT22;4369;47.842;13.096;2023-06-26T06:18:05;19.00;93.50
8664;DHT22;4369;47.842;13.096;2023-06-26T06:20:32;19.10;32.50
8664;DHT22;4369;47.842;13.096;2023-06-26T06:22:58;19.20;1.00
8664;DHT22;4369;47.842;13.096;2023-06-26T06:25:25;19.20;1.00
8664;DHT22;4369;47.842;13.096;2023-06-26T06:27:52;19.30;1.00
8664;DHT22;4369;47.842;13.096;2023-06-26T06:30:19;19.40;1.00
8664;DHT22;4369;47.842;13.096;2023-06-26T06:32:46;19.40;1.00
8664;DHT22;4369;47.842;13.096;2023-06-26T06:35:17;19.50;1.00
8664;DHT22;4369;47.842;13.096;2023-06-26T06:37:44;19.50;1.00
8664;DHT22;4369;47.842;13.096;2023-06-26T06:40:11;19.70;1.00
8664;DHT22;4369;47.842;13.096;2023-06-26T06:42:38;19.80;1.00
8664;DHT22;4369;47.842;13.096;2023-06-26T06:45:06;19.90;1.00
8664;DHT22;4369;47.842;13.096;2023-06-26T06:47:33;19.90;1.00
8664;DHT22;4369;47.842;13.096;2023-06-26T06:50:00;20.00;1.00
8664;DHT22;4369;47.842;13.096;2023-06-26T06:52:35;20.00;1.00
8664;DHT22;4369;47.842;13.096;2023-06-26T06:55:02;20.10;1.00
8664;DHT22;4369;47.842;13.096;2023-06-26T06:57:32;20.20;1.00
8664;DHT22;4369;47.842;13.096;2023-06-26T07:00:02;20.30;1.00
8664;DHT22;4369;47.842;13.096;2023-06-26T07:02:30;20.40;1.00
8664;DHT22;4369;47.842;13.096;2023-06-26T07:04:56;20.50;1.00
8664;DHT22;4369;47.842;13.096;2023-06-26T07:07:23;20.60;1.00
8664;DHT22;4369;47.842;13.096;2023-06-26T07:09:56;20.70;1.00
8664;DHT22;4369;47.842;13.096;2023-06-26T07:12:24;20.80;1.00
8664;DHT22;4369;47.842;13.096;2023-06-26T07:14:51;20.90;1.00
8664;DHT22;4369;47.842;13.096;2023-06-26T07:17:19;21.10;1.00
8664;DHT22;4369;47.842;13.096;2023-06-26T07:19:46;21.20;1.00
8664;DHT22;4369;47.842;13.096;2023-06-26T07:22:13;21.30;1.00
8664;DHT22;4369;47.842;13.096;2023-06-26T07:24:40;21.40;1.00
8664;DHT22;4369;47.842;13.096;2023-06-26T07:27:08;21.50;1.00
8664;DHT22;4369;47.842;13.096;2023-06-26T07:29:35;21.50;1.00
8664;DHT22;4369;47.842;13.096;2023-06-26T07:32:02;21.70;1.00
8664;DHT22;4369;47.842;13.096;2023-06-26T07:34:28;21.80;1.00
8664;DHT22;4369;47.842;13.096;2023-06-26T07:36:55;21.90;1.00
8664;DHT22;4369;47.842;13.096;2023-06-26T07:39:22;21.90;1.00
8664;DHT22;4369;47.842;13.096;2023-06-26T07:41:49;22.10;1.00
8664;DHT22;4369;47.842;13.096;2023-06-26T07:44:17;22.20;1.00
8664;DHT22;4369;47.842;13.096;2023-06-26T07:46:44;22.30;1.00
8664;DHT22;4369;47.842;13.096;2023-06-26T07:49:11;22.40;1.00
8664;DHT22;4369;47.842;13.096;2023-06-26T07:51:38;22.50;1.00
8664;DHT22;4369;47.842;13.096;2023-06-26T07:54:05;22.60;1.00
8664;DHT22;4369;47.842;13.096;2023-06-26T07:56:51;22.70;1.00
8664;DHT22;4369;47.842;13.096;2023-06-26T07:59:20;22.80;1.00
8664;DHT22;4369;47.842;13.096;2023-06-26T08:01:47;22.90;1.00
8664;DHT22;4369;47.842;13.096;2023-06-26T08:04:14;23.10;1.00
8664;DHT22;4369;47.842;13.096;2023-06-26T08:06:41;23.30;1.00
8664;DHT22;4369;47.842;13.096;2023-06-26T08:09:08;23.40;1.00
8664;DHT22;4369;47.842;13.096;2023-06-26T08:11:35;23.40;1.00
8664;DHT22;4369;47.842;13.096;2023-06-26T08:14:02;23.60;1.00
8664;DHT22;4369;47.842;13.096;2023-06-26T08:16:30;23.70;1.00
8664;DHT22;4369;47.842;13.096;2023-06-26T08:18:57;23.80;1.00
8664;DHT22;4369;47.842;13.096;2023-06-26T08:21:24;23.90;1.00
8664;DHT22;4369;47.842;13.096;2023-06-26T08:23:50;23.90;1.00
8664;DHT22;4369;47.842;13.096;2023-06-26T08:26:17;24.00;1.00
8664;DHT22;4369;47.842;13.096;2023-06-26T08:28:44;24.10;1.00
8664;DHT22;4369;47.842;13.096;2023-06-26T08:31:11;24.30;1.00
8664;DHT22;4369;47.842;13.096;2023-06-26T08:33:39;24.30;1.00
8664;DHT22;4369;47.842;13.096;2023-06-26T08:36:06;24.40;1.00
8664;DHT22;4369;47.842;13.096;2023-06-26T08:38:33;24.50;1.00
8664;DHT22;4369;47.842;13.096;2023-06-26T08:41:00;24.70;1.00
8664;DHT22;4369;47.842;13.096;2023-06-26T08:43:27;24.70;1.00
8664;DHT22;4369;47.842;13.096;2023-06-26T08:45:54;24.80;1.00
8664;DHT22;4369;47.842;13.096;2023-06-26T08:48:21;24.90;1.00
8664;DHT22;4369;47.842;13.096;2023-06-26T08:50:52;25.10;1.00
8664;DHT22;4369;47.842;13.096;2023-06-26T08:53:31;25.20;1.00
8664;DHT22;4369;47.842;13.096;2023-06-26T08:56:00;25.20;1.00
8664;DHT22;4369;47.842;13.096;2023-06-26T08:58:28;25.40;1.00
8664;DHT22;4369;47.842;13.096;2023-06-26T09:00:55;25.60;1.00
8664;DHT22;4369;47.842;13.096;2023-06-26T09:03:23;25.80;1.00
8664;DHT22;4369;47.842;13.096;2023-06-26T09:05:52;25.80;1.00
8664;DHT22;4369;47.842;13.096;2023-06-26T09:08:19;25.90;1.00
8664;DHT22;4369;47.842;13.096;2023-06-26T09:10:46;26.00;1.00
8664;DHT22;4369;47.842;13.096;2023-06-26T09:13:13;26.10;1.00
8664;DHT22;4369;47.842;13.096;2023-06-26T09:15:42;26.20;1.00
8664;DHT22;4369;47.842;13.096;2023-06-26T09:18:10;26.40;1.00
8664;DHT22;4369;47.842;13.096;2023-06-26T09:20:36;26.30;1.00
8664;DHT22;4369;47.842;13.096;2023-06-26T09:23:05;26.50;1.00
8664;DHT22;4369;47.842;13.096;2023-06-26T09:25:32;26.50;1.00
8664;DHT22;4369;47.842;13.096;2023-06-26T09:28:00;26.50;1.00
8664;DHT22;4369;47.842;13.096;2023-06-26T09:30:27;26.50;1.00
8664;DHT22;4369;47.842;13.096;2023-06-26T09:32:53;26.60;1.00
8664;DHT22;4369;47.842;13.096;2023-06-26T09:35:20;26.60;1.00
8664;DHT22;4369;47.842;13.096;2023-06-26T09:37:47;26.90;1.00
8664;DHT22;4369;47.842;13.096;2023-06-26T09:40:16;27.20;1.00
8664;DHT22;4369;47.842;13.096;2023-06-26T09:42:43;27.50;1.00
8664;DHT22;4369;47.842;13.096;2023-06-26T09:45:18;27.80;1.00
8664;DHT22;4369;47.842;13.096;2023-06-26T09:47:45;28.20;1.00
8664;DHT22;4369;47.842;13.096;2023-06-26T09:50:21;28.00;1.00
8664;DHT22;4369;47.842;13.096;2023-06-26T09:52:50;28.30;1.00
8664;DHT22;4369;47.842;13.096;2023-06-26T09:55:19;28.60;1.00
8664;DHT22;4369;47.842;13.096;2023-06-26T09:57:48;28.40;1.00
8664;DHT22;4369;47.842;13.096;2023-06-26T10:00:16;28.40;1.00
8664;DHT22;4369;47.842;13.096;2023-06-26T10:02:43;28.10;1.00
8664;DHT22;4369;47.842;13.096;2023-06-26T10:05:10;27.90;1.00
8664;DHT22;4369;47.842;13.096;2023-06-26T10:07:38;28.00;1.00
8664;DHT22;4369;47.842;13.096;2023-06-26T10:10:07;27.90;1.00
8664;DHT22;4369;47.842;13.096;2023-06-26T10:12:36;27.90;1.00
8664;DHT22;4369;47.842;13.096;2023-06-26T10:15:03;27.90;1.00
8664;DHT22;4369;47.842;13.096;2023-06-26T10:17:34;27.90;1.00
8664;DHT22;4369;47.842;13.096;2023-06-26T10:20:02;27.90;1.00
8664;DHT22;4369;47.842;13.096;2023-06-26T10:22:36;27.90;1.00
8664;DHT22;4369;47.842;13.096;2023-06-26T10:25:06;28.10;1.00
8664;DHT22;4369;47.842;13.096;2023-06-26T10:27:38;28.20;1.00
8664;DHT22;4369;47.842;13.096;2023-06-26T10:30:12;28.20;1.00
8664;DHT22;4369;47.842;13.096;2023-06-26T10:32:40;28.50;1.00
8664;DHT22;4369;47.842;13.096;2023-06-26T10:35:08;28.50;1.00
8664;DHT22;4369;47.842;13.096;2023-06-26T10:37:43;28.80;1.00
8664;DHT22;4369;47.842;13.096;2023-06-26T10:40:11;28.90;1.00
8664;DHT22;4369;47.842;13.096;2023-06-26T10:42:40;29.20;1.00
8664;DHT22;4369;47.842;13.096;2023-06-26T10:45:11;29.40;1.00
8664;DHT22;4369;47.842;13.096;2023-06-26T10:47:41;29.50;1.00
8664;DHT22;4369;47.842;13.096;2023-06-26T10:50:19;29.80;1.00
8664;DHT22;4369;47.842;13.096;2023-06-26T10:52:50;30.10;1.00
8664;DHT22;4369;47.842;13.096;2023-06-26T10:55:33;30.00;1.00
8664;DHT22;4369;47.842;13.096;2023-06-26T10:58:02;30.10;1.00
8664;DHT22;4369;47.842;13.096;2023-06-26T11:00:29;30.00;1.00
8664;DHT22;4369;47.842;13.096;2023-06-26T11:02:55;30.00;1.00
8664;DHT22;4369;47.842;13.096;2023-06-26T11:05:27;30.10;1.00
8664;DHT22;4369;47.842;13.096;2023-06-26T11:08:04;30.10;1.00
8664;DHT22;4369;47.842;13.096;2023-06-26T11:10:50;30.10;1.00
8664;DHT22;4369;47.842;13.096;2023-06-26T11:13:19;30.00;1.00
8664;DHT22;4369;47.842;13.096;2023-06-26T11:15:46;30.10;1.00
8664;DHT22;4369;47.842;13.096;2023-06-26T11:18:14;30.20;1.00
8664;DHT22;4369;47.842;13.096;2023-06-26T11:20:40;30.30;1.00
8664;DHT22;4369;47.842;13.096;2023-06-26T11:23:08;30.40;1.00
8664;DHT22;4369;47.842;13.096;2023-06-26T11:25:37;30.30;1.00
8664;DHT22;4369;47.842;13.096;2023-06-26T11:28:04;30.30;1.00
8664;DHT22;4369;47.842;13.096;2023-06-26T11:30:32;30.30;1.00
8664;DHT22;4369;47.842;13.096;2023-06-26T11:33:03;30.50;1.00
8664;DHT22;4369;47.842;13.096;2023-06-26T11:35:30;30.70;1.00
8664;DHT22;4369;47.842;13.096;2023-06-26T11:37:57;30.80;1.00
8664;DHT22;4369;47.842;13.096;2023-06-26T11:40:27;30.70;1.00
8664;DHT22;4369;47.842;13.096;2023-06-26T11:42:57;30.70;1.00
8664;DHT22;4369;47.842;13.096;2023-06-26T11:45:25;31.00;1.00
8664;DHT22;4369;47.842;13.096;2023-06-26T11:47:54;31.10;1.00
8664;DHT22;4369;47.842;13.096;2023-06-26T11:50:22;31.00;1.00
8664;DHT22;4369;47.842;13.096;2023-06-26T11:52:53;31.00;1.00
8664;DHT22;4369;47.842;13.096;2023-06-26T11:55:23;31.20;1.00
8664;DHT22;4369;47.842;13.096;2023-06-26T11:57:50;31.00;1.00
8664;DHT22;4369;47.842;13.096;2023-06-26T12:00:17;31.00;1.00
8664;DHT22;4369;47.842;13.096;2023-06-26T12:02:44;31.50;1.00
8664;DHT22;4369;47.842;13.096;2023-06-26T12:05:14;31.70;1.00
8664;DHT22;4369;47.842;13.096;2023-06-26T12:07:43;32.00;1.00
8664;DHT22;4369;47.842;13.096;2023-06-26T12:10:10;31.90;1.00
8664;DHT22;4369;47.842;13.096;2023-06-26T12:12:38;31.90;1.00
8664;DHT22;4369;47.842;13.096;2023-06-26T12:15:07;31.60;1.00
8664;DHT22;4369;47.842;13.096;2023-06-26T12:17:37;31.40;1.00
8664;DHT22;4369;47.842;13.096;2023-06-26T12:20:05;31.50;1.00
8664;DHT22;4369;47.842;13.096;2023-06-26T12:22:36;31.80;1.00
8664;DHT22;4369;47.842;13.096;2023-06-26T12:25:04;31.70;1.00
8664;DHT22;4369;47.842;13.096;2023-06-26T12:27:35;31.90;1.00
8664;DHT22;4369;47.842;13.096;2023-06-26T12:30:04;32.00;1.00
8664;DHT22;4369;47.842;13.096;2023-06-26T12:32:31;32.10;1.00
8664;DHT22;4369;47.842;13.096;2023-06-26T12:34:58;32.30;1.00
8664;DHT22;4369;47.842;13.096;2023-06-26T12:37:25;32.60;1.00
8664;DHT22;4369;47.842;13.096;2023-06-26T12:39:54;32.50;1.00
8664;DHT22;4369;47.842;13.096;2023-06-26T12:42:23;32.40;1.00
8664;DHT22;4369;47.842;13.096;2023-06-26T12:44:50;32.40;1.00
8664;DHT22;4369;47.842;13.096;2023-06-26T12:47:19;32.20;1.00
8664;DHT22;4369;47.842;13.096;2023-06-26T12:49:50;32.00;1.00
8664;DHT22;4369;47.842;13.096;2023-06-26T12:52:18;31.90;1.00
8664;DHT22;4369;47.842;13.096;2023-06-26T12:54:45;31.70;1.00
8664;DHT22;4369;47.842;13.096;2023-06-26T12:57:14;31.90;1.00
8664;DHT22;4369;47.842;13.096;2023-06-26T12:59:41;32.10;1.00
8664;DHT22;4369;47.842;13.096;2023-06-26T13:02:08;32.10;1.00
8664;DHT22;4369;47.842;13.096;2023-06-26T13:04:36;32.00;1.00
8664;DHT22;4369;47.842;13.096;2023-06-26T13:07:05;32.20;1.00
8664;DHT22;4369;47.842;13.096;2023-06-26T13:09:33;32.60;1.00
8664;DHT22;4369;47.842;13.096;2023-06-26T13:12:00;33.00;1.00
8664;DHT22;4369;47.842;13.096;2023-06-26T13:14:30;33.40;1.00
8664;DHT22;4369;47.842;13.096;2023-06-26T13:16:57;33.50;1.00
8664;DHT22;4369;47.842;13.096;2023-06-26T13:19:24;33.10;1.00
8664;DHT22;4369;47.842;13.096;2023-06-26T13:21:51;33.00;1.00
8664;DHT22;4369;47.842;13.096;2023-06-26T13:24:18;33.20;1.00
8664;DHT22;4369;47.842;13.096;2023-06-26T13:26:45;33.30;1.00
8664;DHT22;4369;47.842;13.096;2023-06-26T13:29:12;33.70;1.00
8664;DHT22;4369;47.842;13.096;2023-06-26T13:31:40;33.80;1.00
8664;DHT22;4369;47.842;13.096;2023-06-26T13:34:07;33.60;1.00
8664;DHT22;4369;47.842;13.096;2023-06-26T13:36:34;33.60;1.00
8664;DHT22;4369;47.842;13.096;2023-06-26T13:39:01;33.60;1.00
8664;DHT22;4369;47.842;13.096;2023-06-26T13:41:28;33.80;1.00
8664;DHT22;4369;47.842;13.096;2023-06-26T13:43:55;33.80;1.00
8664;DHT22;4369;47.842;13.096;2023-06-26T13:46:22;33.80;1.00
8664;DHT22;4369;47.842;13.096;2023-06-26T13:48:51;33.90;1.00
8664;DHT22;4369;47.842;13.096;2023-06-26T13:51:17;34.10;1.00
8664;DHT22;4369;47.842;13.096;2023-06-26T13:53:44;34.40;1.00
8664;DHT22;4369;47.842;13.096;2023-06-26T13:56:11;34.90;1.00
8664;DHT22;4369;47.842;13.096;2023-06-26T13:58:38;35.00;1.00
8664;DHT22;4369;47.842;13.096;2023-06-26T14:01:05;35.60;1.00
8664;DHT22;4369;47.842;13.096;2023-06-26T14:03:32;36.50;1.00
8664;DHT22;4369;47.842;13.096;2023-06-26T14:06:00;37.20;1.00
8664;DHT22;4369;47.842;13.096;2023-06-26T14:08:27;38.10;1.00
8664;DHT22;4369;47.842;13.096;2023-06-26T14:10:54;39.50;1.00
8664;DHT22;4369;47.842;13.096;2023-06-26T14:13:21;39.80;1.00
8664;DHT22;4369;47.842;13.096;2023-06-26T14:15:47;40.60;1.00
8664;DHT22;4369;47.842;13.096;2023-06-26T14:18:18;40.80;1.00
8664;DHT22;4369;47.842;13.096;2023-06-26T14:20:44;39.90;1.00
8664;DHT22;4369;47.842;13.096;2023-06-26T14:23:13;39.70;1.00
8664;DHT22;4369;47.842;13.096;2023-06-26T14:25:40;41.00;1.00
8664;DHT22;4369;47.842;13.096;2023-06-26T14:28:06;41.20;1.00
8664;DHT22;4369;47.842;13.096;2023-06-26T14:30:33;41.30;1.00
8664;DHT22;4369;47.842;13.096;2023-06-26T14:33:00;41.60;1.00
8664;DHT22;4369;47.842;13.096;2023-06-26T14:35:27;41.30;1.00
8664;DHT22;4369;47.842;13.096;2023-06-26T14:37:54;41.20;1.00
8664;DHT22;4369;47.842;13.096;2023-06-26T14:40:22;41.40;1.00
8664;DHT22;4369;47.842;13.096;2023-06-26T14:42:49;39.50;1.00
8664;DHT22;4369;47.842;13.096;2023-06-26T14:45:16;38.20;1.00
8664;DHT22;4369;47.842;13.096;2023-06-26T14:47:43;36.70;1.00
8664;DHT22;4369;47.842;13.096;2023-06-26T14:50:10;35.80;1.00
8664;DHT22;4369;47.842;13.096;2023-06-26T14:52:36;35.60;1.00
8664;DHT22;4369;47.842;13.096;2023-06-26T14:55:04;36.00;1.00
8664;DHT22;4369;47.842;13.096;2023-06-26T14:57:32;36.40;1.00
8664;DHT22;4369;47.842;13.096;2023-06-26T14:59:59;36.70;1.00
8664;DHT22;4369;47.842;13.096;2023-06-26T15:02:26;37.50;1.00
8664;DHT22;4369;47.842;13.096;2023-06-26T15:04:53;38.00;1.00
8664;DHT22;4369;47.842;13.096;2023-06-26T15:07:20;38.10;1.00
8664;DHT22;4369;47.842;13.096;2023-06-26T15:09:47;38.70;1.00
8664;DHT22;4369;47.842;13.096;2023-06-26T15:12:14;37.90;1.00
8664;DHT22;4369;47.842;13.096;2023-06-26T15:14:42;37.40;1.00
8664;DHT22;4369;47.842;13.096;2023-06-26T15:17:09;36.50;1.00
8664;DHT22;4369;47.842;13.096;2023-06-26T15:19:36;36.30;1.00
8664;DHT22;4369;47.842;13.096;2023-06-26T15:22:03;35.80;1.00
8664;DHT22;4369;47.842;13.096;2023-06-26T15:24:30;35.40;1.00
8664;DHT22;4369;47.842;13.096;2023-06-26T15:26:57;35.20;1.00
8664;DHT22;4369;47.842;13.096;2023-06-26T15:29:24;35.20;1.00
8664;DHT22;4369;47.842;13.096;2023-06-26T15:31:52;34.90;1.00
8664;DHT22;4369;47.842;13.096;2023-06-26T15:34:20;34.50;1.00
8664;DHT22;4369;47.842;13.096;2023-06-26T15:36:46;34.20;1.00
8664;DHT22;4369;47.842;13.096;2023-06-26T15:39:13;34.00;1.00
8664;DHT22;4369;47.842;13.096;2023-06-26T15:41:40;33.90;1.00
8664;DHT22;4369;47.842;13.096;2023-06-26T15:44:07;33.50;1.00
8664;DHT22;4369;47.842;13.096;2023-06-26T15:46:34;33.40;1.00
8664;DHT22;4369;47.842;13.096;2023-06-26T15:49:02;33.30;1.00
8664;DHT22;4369;47.842;13.096;2023-06-26T15:51:29;33.30;1.00
8664;DHT22;4369;47.842;13.096;2023-06-26T15:53:59;33.40;1.00
8664;DHT22;4369;47.842;13.096;2023-06-26T15:56:26;33.30;1.00
8664;DHT22;4369;47.842;13.096;2023-06-26T15:58:52;33.00;1.00
8664;DHT22;4369;47.842;13.096;2023-06-26T16:01:20;33.00;1.00
8664;DHT22;4369;47.842;13.096;2023-06-26T16:03:47;32.70;1.00
8664;DHT22;4369;47.842;13.096;2023-06-26T16:06:16;32.50;1.00
8664;DHT22;4369;47.842;13.096;2023-06-26T16:08:43;32.40;1.00
8664;DHT22;4369;47.842;13.096;2023-06-26T16:11:11;32.50;1.00
8664;DHT22;4369;47.842;13.096;2023-06-26T16:13:38;32.70;1.00